Time;durP1;ratioP1;P1;durP2;ratioP2;P2;SDS_P1;SDS_P2;PMS_P1;PMS_P2;Temp;Humidity;BMP_temperature;BMP_pressure;BME280_temperature;BME280_humidity;BME280_pressure;Samples;Min_cycle;Max_cycle;Signal;HPM_P1;HPM_P2
2021/03/05 00:00:18;;;;;;;31.20;17.88;;;;;;;6.17;87.94;95272.91;4987803;28;20046;-68
2021/03/05 00:02:44;;;;;;;34.58;17.38;;;;;;;6.14;87.68;95273.47;4988943;28;20035;-67
2021/03/05 00:05:10;;;;;;;25.33;14.80;;;;;;;6.08;87.61;95271.91;4989217;28;20041;-68
2021/03/05 00:07:36;;;;;;;30.45;17.17;;;;;;;5.92;88.04;95233.44;4971532;28;20034;-66
2021/03/05 00:10:08;;;;;;;32.50;16.25;;;;;;;6.10;88.56;95274.28;4990825;28;20069;-67
2021/03/05 00:12:34;;;;;;;32.28;16.52;;;;;;;6.01;87.70;95250.28;4971454;28;20073;-67
2021/03/05 00:14:59;;;;;;;31.65;16.77;;;;;;;6.19;87.90;95238.31;4989004;28;20481;-68
2021/03/05 00:17:24;;;;;;;32.17;17.67;;;;;;;6.50;88.37;95228.34;4988825;28;20039;-68
2021/03/05 00:19:50;;;;;;;22.52;14.15;;;;;;;5.90;87.70;95224.97;4988971;28;20489;-67
2021/03/05 00:22:15;;;;;;;26.98;15.32;;;;;;;6.04;87.90;95235.75;4988605;28;20033;-68
2021/03/05 00:24:41;;;;;;;28.60;16.02;;;;;;;5.93;88.32;95229.72;4991514;28;20104;-67
2021/03/05 00:27:06;;;;;;;23.15;15.13;;;;;;;6.05;87.96;95232.06;4992571;28;20299;-68
2021/03/05 00:29:31;;;;;;;25.23;14.60;;;;;;;5.84;88.91;95241.91;4975235;28;20537;-67
2021/03/05 00:31:57;;;;;;;19.30;13.25;;;;;;;5.53;88.72;95225.38;4975102;28;20134;-67
2021/03/05 00:34:22;;;;;;;19.05;13.68;;;;;;;5.61;90.25;95259.16;4992608;28;20034;-67
2021/03/05 00:36:49;;;;;;;19.92;12.25;;;;;;;5.65;89.86;95258.34;4994521;28;20027;-66
2021/03/05 00:39:14;;;;;;;17.58;11.82;;;;;;;5.26;90.55;95236.28;4992682;28;20053;-67
2021/03/05 00:41:40;;;;;;;16.33;11.38;;;;;;;5.36;90.45;95237.03;4992497;28;20408;-68
2021/03/05 00:44:06;;;;;;;17.63;11.02;;;;;;;5.51;90.02;95280.28;4992742;28;20062;-69
2021/03/05 00:46:32;;;;;;;16.00;12.05;;;;;;;5.90;89.51;95286.50;4975095;28;20022;-68
2021/03/05 00:48:57;;;;;;;16.38;10.68;;;;;;;5.39;89.79;95241.00;4994465;28;20022;-67
2021/03/05 00:51:23;;;;;;;13.30;9.98;;;;;;;5.17;90.75;95230.78;4991987;28;20141;-69
2021/03/05 00:53:48;;;;;;;14.27;11.25;;;;;;;5.56;90.42;95272.34;4992338;28;20042;-67
2021/03/05 00:56:13;;;;;;;13.55;8.27;;;;;;;5.34;91.44;95270.03;4975148;28;20464;-67
2021/03/05 00:58:39;;;;;;;11.13;7.53;;;;;;;5.24;91.76;95262.94;4992418;28;20038;-68
2021/03/05 01:01:05;;;;;;;11.50;8.35;;;;;;;5.31;92.63;95299.56;4994586;28;20400;-66
2021/03/05 01:03:31;;;;;;;17.00;10.10;;;;;;;4.78;94.27;95238.47;4992637;28;20042;-67
2021/03/05 01:05:56;;;;;;;28.10;13.38;;;;;;;5.06;93.65;95255.56;4974957;28;20505;-68
2021/03/05 01:08:21;;;;;;;21.90;14.15;;;;;;;4.95;93.63;95226.59;4991909;28;20041;-67
2021/03/05 01:10:47;;;;;;;25.17;15.35;;;;;;;4.80;93.12;95181.78;4974688;28;20508;-66
2021/03/05 01:13:12;;;;;;;18.65;12.13;;;;;;;5.26;93.81;95281.91;4974537;28;20058;-68
2021/03/05 01:15:38;;;;;;;25.90;14.85;;;;;;;5.45;93.28;95290.06;4976675;28;20472;-67
2021/03/05 01:18:04;;;;;;;19.73;13.85;;;;;;;5.42;93.10;95285.31;4991917;28;20046;-67
2021/03/05 01:20:29;;;;;;;26.55;15.65;;;;;;;5.66;91.51;95278.38;4991848;28;20779;-69
2021/03/05 01:22:55;;;;;;;21.85;13.90;;;;;;;4.93;91.95;95199.72;4991575;28;20393;-68
2021/03/05 01:25:23;;;;;;;20.83;14.43;;;;;;;5.31;91.95;95244.97;4991932;28;20050;-67
2021/03/05 01:27:49;;;;;;;22.67;14.80;;;;;;;5.54;91.76;95243.59;4993415;28;20037;-68
2021/03/05 01:30:15;;;;;;;31.63;15.98;;;;;;;5.79;91.90;95287.59;4991576;28;20046;-67
2021/03/05 01:32:40;;;;;;;26.77;14.73;;;;;;;5.56;91.23;95259.16;4973741;28;20050;-67
2021/03/05 01:35:14;;;;;;;26.25;15.68;;;;;;;5.54;91.69;95256.78;4990278;28;20045;-67
2021/03/05 01:37:40;;;;;;;29.08;17.00;;;;;;;5.57;89.96;95210.59;4991426;28;20042;-67
2021/03/05 01:40:10;;;;;;;26.35;15.40;;;;;;;5.72;91.50;95285.22;4975750;28;20396;-67
2021/03/05 01:42:35;;;;;;;23.73;15.07;;;;;;;5.90;90.90;95277.78;4973642;28;20411;-68
2021/03/05 01:45:01;;;;;;;28.65;15.15;;;;;;;5.85;90.07;95240.84;4990113;28;20042;-67
2021/03/05 01:47:27;;;;;;;24.23;13.95;;;;;;;5.89;89.04;95226.06;4991169;28;20044;-68
2021/03/05 01:49:52;;;;;;;17.27;12.27;;;;;;;5.56;89.91;95223.00;4973382;28;20547;-67
2021/03/05 01:52:18;;;;;;;20.15;12.43;;;;;;;5.83;89.23;95250.88;4973734;28;20096;-69
2021/03/05 01:54:43;;;;;;;15.57;10.70;;;;;;;5.50;90.09;95253.09;4993103;28;20026;-68
2021/03/05 01:57:08;;;;;;;17.15;11.85;;;;;;;5.46;89.86;95225.69;4990944;28;20538;-67
2021/03/05 01:59:34;;;;;;;16.27;11.05;;;;;;;5.81;89.99;95284.69;4989936;28;20046;-68
2021/03/05 02:02:09;;;;;;;16.73;12.48;;;;;;;5.82;89.77;95244.81;4990783;28;20050;-67
2021/03/05 02:04:37;;;;;;;16.77;12.10;;;;;;;5.71;89.74;95249.34;4991002;28;20096;-67
2021/03/05 02:07:04;;;;;;;19.65;10.50;;;;;;;5.74;90.17;95275.19;4975173;28;20023;-67
2021/03/05 02:09:30;;;;;;;23.23;12.75;;;;;;;5.78;89.80;95272.00;4973461;28;20057;-67
2021/03/05 02:11:56;;;;;;;25.67;13.07;;;;;;;5.68;89.97;95263.09;4990657;28;20141;-68
2021/03/05 02:14:21;;;;;;;17.95;12.15;;;;;;;5.27;90.60;95208.84;4990836;28;20065;-67
2021/03/05 02:17:16;;;;;;;20.20;13.05;;;;;;;5.60;91.51;95286.59;4973150;28;20057;-67
2021/03/05 02:20:12;;;;;;;20.33;10.90;;;;;;;5.25;92.84;95288.25;4990835;28;20439;-68
2021/03/05 02:22:56;;;;;;;19.10;12.73;;;;;;;5.30;93.09;95282.97;4973111;28;20031;-67
2021/03/05 02:25:50;;;;;;;21.77;13.25;;;;;;;5.40;93.09;95288.22;4990595;28;20026;-68
2021/03/05 02:28:40;;;;;;;19.83;14.57;;;;;;;5.24;92.18;95252.38;5002068;23;20126;-74
2021/03/05 02:31:12;;;;;;;22.15;13.20;;;;;;;5.35;93.35;95276.88;4968759;28;20038;-78
2021/03/05 02:33:49;;;;;;;24.20;14.70;;;;;;;5.41;92.95;95270.53;4992417;28;20045;-78
2021/03/05 02:36:53;;;;;;;29.95;15.73;;;;;;;5.60;91.85;95254.94;4990659;28;20122;-76
2021/03/05 02:39:23;;;;;;;28.08;15.82;;;;;;;5.72;91.46;95269.38;4950525;28;20039;-78
2021/03/05 02:41:53;;;;;;;24.23;15.77;;;;;;;5.62;91.33;95253.59;4984823;28;20690;-78
2021/03/05 02:44:25;;;;;;;23.77;15.50;;;;;;;5.78;91.27;95272.00;4991461;28;20532;-78
2021/03/05 02:46:56;;;;;;;25.83;15.82;;;;;;;5.64;91.34;95267.31;4991918;28;20030;-78
2021/03/05 02:49:24;;;;;;;21.88;15.27;;;;;;;5.55;91.12;95247.03;4991536;28;20026;-76
2021/03/05 02:51:52;;;;;;;22.98;15.23;;;;;;;5.61;91.70;95270.47;4992549;28;20420;-77
2021/03/05 02:54:19;;;;;;;21.33;14.13;;;;;;;5.48;92.10;95273.72;4991606;28;20042;-76
2021/03/05 02:56:46;;;;;;;24.23;13.07;;;;;;;5.44;92.17;95273.44;4990231;28;20401;-76
2021/03/05 02:59:13;;;;;;;15.05;11.57;;;;;;;5.65;91.18;95257.56;4991702;28;20069;-77
2021/03/05 03:01:45;;;;;;;16.15;11.73;;;;;;;5.64;91.05;95269.97;4973960;28;20030;-76
2021/03/05 03:04:12;;;;;;;19.77;12.65;;;;;;;5.78;90.44;95256.16;4993322;28;20022;-76
2021/03/05 03:06:38;;;;;;;17.17;11.80;;;;;;;5.30;91.92;95253.94;4991771;28;20139;-77
2021/03/05 03:09:04;;;;;;;14.15;11.70;;;;;;;5.42;92.15;95262.34;4973681;28;20034;-77
2021/03/05 03:11:33;;;;;;;14.40;11.93;;;;;;;5.66;91.82;95277.59;4990756;28;20519;-77
2021/03/05 03:13:59;;;;;;;14.85;12.45;;;;;;;5.35;92.64;95272.41;4991074;28;20049;-76
2021/03/05 03:16:27;;;;;;;18.25;12.00;;;;;;;5.65;91.41;95276.81;4990952;28;20019;-76
2021/03/05 03:18:52;;;;;;;13.27;10.18;;;;;;;5.32;92.30;95266.84;4992887;28;20034;-76
2021/03/05 03:21:19;;;;;;;18.52;12.43;;;;;;;5.59;91.40;95277.88;4973093;28;20039;-76
2021/03/05 03:23:45;;;;;;;17.88;12.25;;;;;;;5.52;91.00;95272.09;4989623;28;20042;-77
2021/03/05 03:26:10;;;;;;;15.85;12.80;;;;;;;5.90;90.76;95290.97;4989785;28;20038;-76
2021/03/05 03:28:36;;;;;;;15.05;11.65;;;;;;;5.61;90.90;95286.31;4972917;28;20041;-78
2021/03/05 03:31:07;;;;;;;14.40;12.30;;;;;;;5.71;91.12;95296.06;4975054;28;20050;-76
2021/03/05 03:33:34;;;;;;;16.58;12.13;;;;;;;5.62;90.17;95261.50;4989284;28;20046;-77
2021/03/05 03:36:04;;;;;;;15.85;12.13;;;;;;;5.91;89.70;95284.63;4990611;28;20519;-77
2021/03/05 03:38:31;;;;;;;14.65;11.20;;;;;;;6.04;88.56;95292.00;4990435;28;20121;-77
2021/03/05 03:40:57;;;;;;;16.63;12.30;;;;;;;5.89;88.40;95290.19;4990488;28;20097;-78
2021/03/05 03:43:22;;;;;;;17.25;13.13;;;;;;;6.10;88.62;95298.06;4989213;28;20026;-76
2021/03/05 03:45:48;;;;;;;13.43;11.93;;;;;;;6.24;88.03;95301.66;4992196;28;20109;-76
2021/03/05 03:48:13;;;;;;;13.30;11.48;;;;;;;6.13;87.81;95277.16;4990077;28;20041;-76
2021/03/05 03:50:44;;;;;;;15.20;10.55;;;;;;;6.21;87.95;95303.00;4990017;28;20042;-76
2021/03/05 03:53:20;;;;;;;12.13;10.93;;;;;;;6.19;88.08;95296.41;4988742;28;20408;-76
2021/03/05 03:55:49;;;;;;;13.23;10.73;;;;;;;6.23;86.27;95297.44;4989828;28;20041;-76
2021/03/05 03:58:16;;;;;;;15.20;9.38;;;;;;;5.79;88.07;95308.72;4989019;28;20026;-77
2021/03/05 04:00:42;;;;;;;11.20;9.50;;;;;;;5.94;87.75;95292.06;4991099;28;20080;-75
2021/03/05 04:03:09;;;;;;;10.75;9.65;;;;;;;5.92;87.64;95292.31;4990063;28;20086;-76
2021/03/05 04:05:37;;;;;;;15.40;9.68;;;;;;;5.75;88.12;95291.81;4990286;28;20038;-75
2021/03/05 04:08:05;;;;;;;12.18;10.02;;;;;;;6.23;87.56;95305.38;4989972;28;20121;-75
2021/03/05 04:10:31;;;;;;;11.98;10.30;;;;;;;6.26;86.52;95315.41;4990050;28;20052;-76
2021/03/05 04:12:57;;;;;;;10.82;9.57;;;;;;;6.09;86.94;95301.75;4990642;28;20544;-74
2021/03/05 04:15:25;;;;;;;11.32;9.23;;;;;;;6.05;86.41;95303.38;4990197;28;20039;-76
2021/03/05 04:17:51;;;;;;;15.40;9.65;;;;;;;6.29;86.31;95316.69;4989876;28;20041;-76
2021/03/05 04:20:19;;;;;;;10.43;9.43;;;;;;;5.82;87.08;95297.59;4990086;28;20035;-76
2021/03/05 04:22:45;;;;;;;10.93;8.55;;;;;;;5.66;87.39;95309.25;4989801;28;20492;-77
2021/03/05 04:25:13;;;;;;;9.20;8.30;;;;;;;5.70;88.16;95315.59;4992115;28;20034;-76
2021/03/05 04:27:38;;;;;;;10.60;9.50;;;;;;;5.81;86.86;95296.03;4972903;28;20452;-78
2021/03/05 04:30:04;;;;;;;10.30;8.15;;;;;;;5.67;87.95;95316.13;4972598;28;20062;-79
2021/03/05 04:32:30;;;;;;;10.35;7.90;;;;;;;5.72;87.62;95314.25;4990078;28;20401;-78
2021/03/05 04:34:55;;;;;;;10.52;8.40;;;;;;;5.81;87.58;95303.94;4988778;28;20049;-77
2021/03/05 04:37:20;;;;;;;9.23;7.15;;;;;;;5.61;88.29;95327.75;4972506;28;20039;-78
2021/03/05 04:39:45;;;;;;;8.48;7.50;;;;;;;5.44;88.49;95301.66;4974405;28;20042;-78
2021/03/05 04:42:11;;;;;;;21.38;9.00;;;;;;;5.19;89.93;95321.75;4972352;28;20122;-77
2021/03/05 04:44:36;;;;;;;23.05;14.18;;;;;;;5.17;91.14;95305.41;4989901;28;20043;-78
2021/03/05 04:47:01;;;;;;;37.72;17.23;;;;;;;5.28;91.92;95313.31;4989551;28;20713;-75
2021/03/05 04:49:27;;;;;;;31.75;16.10;;;;;;;5.23;92.92;95322.00;4989819;28;20038;-75
2021/03/05 04:51:52;;;;;;;37.97;17.73;;;;;;;5.12;93.07;95320.44;4991684;28;20035;-76
2021/03/05 04:54:17;;;;;;;42.80;18.42;;;;;;;5.11;93.39;95318.84;4989664;28;20042;-75
2021/03/05 04:56:43;;;;;;;52.25;21.15;;;;;;;5.09;94.26;95316.47;4989561;28;20519;-76
2021/03/05 04:59:08;;;;;;;64.97;24.65;;;;;;;5.41;93.51;95318.81;4988915;28;20181;-76
2021/03/05 05:01:33;;;;;;;71.40;25.83;;;;;;;5.33;92.94;95318.56;4972942;28;20031;-79
2021/03/05 05:03:59;;;;;;;57.05;18.85;;;;;;;4.79;93.96;95313.84;4997279;28;20137;-78
2021/03/05 05:06:24;;;;;;;26.30;13.27;;;;;;;4.59;94.81;95325.13;4992149;28;20037;-83
2021/03/05 05:08:49;;;;;;;21.10;8.90;;;;;;;4.37;95.03;95335.91;4992967;28;20041;-80
2021/03/05 05:11:15;;;;;;;59.55;21.10;;;;;;;4.56;96.29;95344.13;5003615;28;20069;-82
2021/03/05 05:13:40;;;;;;;60.00;19.40;;;;;;;4.24;96.80;95326.63;5006399;28;20046;-83
2021/03/05 05:16:06;;;;;;;63.28;21.27;;;;;;;4.30;97.08;95337.97;5007004;28;20057;-81
2021/03/05 05:18:32;;;;;;;76.47;23.00;;;;;;;4.47;96.93;95340.41;4999371;28;20038;-81
2021/03/05 05:20:57;;;;;;;90.72;27.27;;;;;;;4.55;97.45;95345.94;4994433;28;20061;-81
2021/03/05 05:23:22;;;;;;;75.60;23.52;;;;;;;4.32;97.59;95322.72;4994297;28;20038;-82
2021/03/05 05:25:48;;;;;;;101.47;28.67;;;;;;;4.36;98.79;95366.72;4994769;28;20105;-83
2021/03/05 05:28:13;;;;;;;102.78;28.40;;;;;;;4.29;98.98;95350.34;4995035;28;20396;-79
2021/03/05 05:30:38;;;;;;;57.30;15.93;;;;;;;4.19;99.28;95347.69;4996269;28;20050;-79
2021/03/05 05:33:04;;;;;;;114.53;31.05;;;;;;;4.28;98.92;95337.44;4994236;28;20089;-77
2021/03/05 05:35:29;;;;;;;94.03;26.90;;;;;;;4.36;98.64;95324.56;4993642;28;20061;-78
2021/03/05 05:37:54;;;;;;;95.43;29.13;;;;;;;4.76;97.52;95348.59;4993471;28;20054;-76
2021/03/05 05:40:20;;;;;;;96.03;30.50;;;;;;;4.58;98.65;95344.63;4992205;28;20070;-79
2021/03/05 05:42:49;;;;;;;115.25;33.47;;;;;;;4.91;97.03;95351.25;4994902;28;20491;-76
2021/03/05 05:45:15;;;;;;;111.90;31.40;;;;;;;4.69;98.33;95359.41;4993198;28;20034;-78
2021/03/05 05:47:42;;;;;;;87.10;26.48;;;;;;;4.56;98.44;95336.22;4992476;28;20074;-79
2021/03/05 05:50:08;;;;;;;103.03;30.33;;;;;;;4.61;98.25;95354.66;4975226;28;20077;-77
2021/03/05 05:52:34;;;;;;;137.07;39.40;;;;;;;4.72;98.82;95352.84;4991205;28;20824;-76
2021/03/05 05:55:02;;;;;;;138.32;38.70;;;;;;;5.02;97.26;95347.59;4994784;28;20026;-76
2021/03/05 05:57:28;;;;;;;191.27;45.08;;;;;;;5.26;96.10;95337.28;4992454;28;20225;-76
2021/03/05 05:59:57;;;;;;;177.55;43.67;;;;;;;5.54;95.72;95343.88;4992446;28;20038;-77
2021/03/05 06:02:23;;;;;;;101.25;27.30;;;;;;;4.57;96.88;95335.94;4992587;28;20125;-77
2021/03/05 06:04:53;;;;;;;144.85;37.58;;;;;;;4.58;97.99;95332.25;4993406;28;20034;-81
2021/03/05 06:07:19;;;;;;;116.07;33.83;;;;;;;4.53;97.85;95345.41;4976085;28;20496;-81
2021/03/05 06:09:51;;;;;;;121.68;32.03;;;;;;;4.58;98.33;95370.97;4995334;28;20093;-79
2021/03/05 06:12:17;;;;;;;129.57;31.25;;;;;;;4.61;96.47;95337.00;4991874;28;20088;-78
2021/03/05 06:14:44;;;;;;;83.78;25.33;;;;;;;4.55;97.04;95356.47;4992249;28;20587;-74
2021/03/05 06:17:10;;;;;;;70.53;19.70;;;;;;;4.12;97.69;95355.81;4991739;28;20042;-72
2021/03/05 06:19:36;;;;;;;92.88;27.02;;;;;;;4.42;96.80;95320.91;4990638;28;20056;-82
2021/03/05 06:22:02;;;;;;;104.65;29.00;;;;;;;4.88;95.89;95362.34;4993011;28;20084;-75
2021/03/05 06:24:28;;;;;;;103.63;28.58;;;;;;;5.07;94.50;95371.31;4974930;28;20046;-80
2021/03/05 06:26:58;;;;;;;88.78;25.73;;;;;;;4.86;95.49;95388.16;4992464;28;20034;-71
2021/03/05 06:29:29;;;;;;;69.90;21.08;;;;;;;4.33;95.98;95377.75;4990918;28;20042;-79
2021/03/05 06:31:59;;;;;;;80.18;24.30;;;;;;;4.27;96.33;95376.16;4988045;28;20053;-72
2021/03/05 06:34:26;;;;;;;64.95;19.55;;;;;;;3.74;97.07;95341.19;4991103;28;20027;-72
2021/03/05 06:37:04;;;;;;;76.68;22.55;;;;;;;4.11;96.85;95361.34;4976052;28;20081;-77
2021/03/05 06:39:32;;;;;;;62.53;20.20;;;;;;;4.09;96.03;95356.31;4972764;28;20045;-71
2021/03/05 06:42:00;;;;;;;75.15;24.05;;;;;;;4.14;95.96;95361.59;4990909;28;20050;-78
2021/03/05 06:44:25;;;;;;;85.38;26.52;;;;;;;4.73;94.48;95388.66;4989521;28;20465;-72
2021/03/05 06:46:51;;;;;;;70.15;19.98;;;;;;;4.13;94.17;95373.19;4989304;28;20092;-73
2021/03/05 06:49:16;;;;;;;56.58;18.30;;;;;;;4.16;95.34;95404.28;4974247;28;20026;-77
2021/03/05 06:51:51;;;;;;;85.78;26.48;;;;;;;4.29;94.99;95368.00;4993176;28;20057;-80
2021/03/05 06:54:16;;;;;;;54.78;21.33;;;;;;;4.85;97.42;95418.19;4990956;28;20070;-68
2021/03/05 06:56:46;;;;;;;65.32;23.90;;;;;;;4.81;92.05;95381.06;4990658;28;20069;-77
2021/03/05 06:59:14;;;;;;;56.60;22.02;;;;;;;4.13;94.43;95402.16;4974320;28;20133;-83
2021/03/05 07:01:59;;;;;;;75.25;24.85;;;;;;;4.68;93.50;95413.94;4990090;28;20066;-72
2021/03/05 07:04:31;;;;;;;78.18;25.80;;;;;;;4.90;93.01;95426.91;4991013;28;20157;-81
2021/03/05 07:07:04;;;;;;;80.82;27.67;;;;;;;5.08;92.28;95438.03;4992784;28;20385;-71
2021/03/05 07:09:41;;;;;;;57.28;21.17;;;;;;;4.29;94.32;95445.13;4990906;28;20042;-73
2021/03/05 07:12:10;;;;;;;61.83;20.52;;;;;;;3.86;94.93;95431.22;4988774;28;20046;-67
2021/03/05 07:14:38;;;;;;;67.15;25.10;;;;;;;4.25;94.95;95443.28;4989621;28;20552;-71
2021/03/05 07:17:04;;;;;;;61.20;23.15;;;;;;;3.78;96.06;95431.69;4989900;28;20030;-75
2021/03/05 07:19:32;;;;;;;59.38;23.17;;;;;;;4.19;94.07;95468.78;4990627;28;20054;-77
2021/03/05 07:21:58;;;;;;;75.78;24.63;;;;;;;4.21;94.15;95452.75;4991466;28;20034;-79
2021/03/05 07:24:29;;;;;;;63.42;22.75;;;;;;;4.31;93.84;95445.69;4987137;28;20031;-82
2021/03/05 07:26:56;;;;;;;76.65;26.80;;;;;;;4.21;93.59;95448.28;4990956;28;20034;-82
2021/03/05 07:29:25;;;;;;;78.57;25.17;;;;;;;3.99;94.31;95453.66;4985974;28;20050;-78
2021/03/05 07:32:08;;;;;;;104.15;30.98;;;;;;;4.34;94.11;95442.53;4989846;28;20495;-80
2021/03/05 07:34:37;;;;;;;67.55;22.25;;;;;;;3.92;94.67;95461.78;4992019;28;20102;-81
2021/03/05 07:37:05;;;;;;;86.03;26.73;;;;;;;4.29;94.37;95470.69;4993440;28;20046;-80
2021/03/05 07:39:34;;;;;;;78.85;25.35;;;;;;;4.00;94.84;95478.97;4991507;28;20399;-81
2021/03/05 07:42:01;;;;;;;64.97;23.70;;;;;;;3.88;95.10;95463.34;4991438;28;20046;-81
2021/03/05 07:44:26;;;;;;;75.10;26.67;;;;;;;3.82;94.97;95461.72;4990905;28;20489;-80
2021/03/05 07:46:53;;;;;;;84.05;26.23;;;;;;;3.82;95.47;95467.00;4974137;28;20046;-81
2021/03/05 07:49:32;;;;;;;63.35;25.58;;;;;;;3.63;95.07;95440.31;4991010;28;20061;-78
2021/03/05 07:51:58;;;;;;;63.55;23.02;;;;;;;3.67;96.05;95495.81;4992570;28;20030;-81
2021/03/05 07:54:39;;;;;;;92.55;28.88;;;;;;;3.80;95.94;95484.09;4991557;28;20089;-80
2021/03/05 07:57:28;;;;;;;89.88;27.23;;;;;;;3.90;94.92;95494.69;4989127;28;20129;-80
2021/03/05 07:59:55;;;;;;;76.18;27.08;;;;;;;3.53;95.91;95492.00;4973645;28;20652;-79
2021/03/05 08:02:22;;;;;;;76.00;25.02;;;;;;;2.85;97.04;95441.72;4988662;28;20573;-78
2021/03/05 08:04:52;;;;;;;59.72;19.80;;;;;;;3.46;96.55;95510.63;4973698;28;20125;-78
2021/03/05 08:07:22;;;;;;;49.00;16.67;;;;;;;3.41;96.00;95513.22;4989743;28;20089;-79
2021/03/05 08:09:48;;;;;;;42.35;15.50;;;;;;;3.20;96.63;95514.06;4993460;28;20158;-80
2021/03/05 08:12:30;;;;;;;32.30;11.52;;;;;;;3.00;96.63;95523.31;4991246;28;20521;-78
2021/03/05 08:15:08;;;;;;;;;;;;;;;3.23;96.81;95526.72;4991013;28;20038;-82
2021/03/05 08:17:34;;;;;;;51.13;15.80;;;;;;;3.55;96.14;95519.66;4991833;28;19918;-81
2021/03/05 08:19:59;;;;;;;26.75;9.85;;;;;;;2.95;96.35;95531.16;4992110;28;20046;-81
2021/03/05 08:22:27;;;;;;;24.38;11.20;;;;;;;2.64;97.26;95545.75;4991844;28;20029;-81
2021/03/05 08:28:37;;;;;;;28.05;11.52;;;;;;;2.63;98.10;95549.44;4992034;28;20129;-83
2021/03/05 08:31:02;;;;;;;45.22;15.40;;;;;;;3.02;96.45;95547.53;4991020;28;20050;-82
2021/03/05 08:33:32;;;;;;;29.35;11.73;;;;;;;3.12;95.45;95555.53;4991244;28;20410;-81
2021/03/05 08:35:58;;;;;;;12.23;4.20;;;;;;;2.27;96.44;95562.06;4991807;28;20084;-82
2021/03/05 08:38:35;;;;;;;29.33;10.73;;;;;;;2.53;97.46;95571.09;4991198;28;20500;-83
2021/03/05 08:41:05;;;;;;;15.02;6.13;;;;;;;2.01;98.44;95554.88;4974062;28;20034;-84
2021/03/05 08:43:33;;;;;;;26.55;9.95;;;;;;;2.23;98.08;95571.47;4991514;28;20044;-82
2021/03/05 08:46:09;;;;;;;66.57;17.60;;;;;;;2.38;96.93;95555.13;4994497;28;20716;-82
2021/03/05 08:48:46;;;;;;;106.80;26.92;;;;;;;2.85;96.06;95578.31;4994358;28;20045;-80
2021/03/05 08:51:14;;;;;;;94.88;26.08;;;;;;;3.39;95.51;95578.44;4994184;28;20186;-80
2021/03/05 08:53:49;;;;;;;83.97;23.63;;;;;;;2.86;93.57;95572.03;4977572;28;20129;-79
2021/03/05 08:56:21;;;;;;;107.35;25.50;;;;;;;3.09;93.41;95587.56;4977452;28;20097;-78
2021/03/05 08:59:00;;;;;;;;;;;;;;;2.89;93.70;95595.19;4977037;28;20470;-78
2021/03/05 09:01:28;;;;;;;82.25;20.92;;;;;;;3.14;92.70;95610.47;4976476;28;19920;-80
2021/03/05 09:04:06;;;;;;;94.35;25.50;;;;;;;2.76;93.35;95595.53;4978973;28;20034;-79
2021/03/05 09:06:31;;;;;;;82.13;24.85;;;;;;;2.66;94.10;95609.34;4994075;28;20053;-79
2021/03/05 09:09:08;;;;;;;81.45;25.55;;;;;;;2.87;93.62;95605.16;4993436;28;20042;-77
2021/03/05 09:11:33;;;;;;;73.55;23.60;;;;;;;3.40;93.67;95603.69;4993672;28;20125;-77
2021/03/05 09:13:59;;;;;;;83.45;24.92;;;;;;;2.81;91.99;95608.75;4993822;28;20070;-78
2021/03/05 09:16:25;;;;;;;69.53;23.02;;;;;;;2.81;93.85;95611.38;4993974;28;20502;-78
2021/03/05 09:18:53;;;;;;;72.63;21.05;;;;;;;2.95;92.72;95633.63;4996053;28;20502;-80
2021/03/05 09:21:18;;;;;;;49.80;16.92;;;;;;;2.21;93.82;95633.91;4976312;28;20070;-79
2021/03/05 09:23:45;;;;;;;79.00;22.73;;;;;;;2.64;93.99;95635.06;4993890;28;20088;-74
2021/03/05 09:26:17;;;;;;;53.00;16.60;;;;;;;2.48;94.52;95636.66;4975768;28;20042;-78
2021/03/05 09:28:48;;;;;;;79.05;24.08;;;;;;;2.66;93.96;95640.84;4975641;28;20149;-76
2021/03/05 09:31:16;;;;;;;51.78;16.52;;;;;;;2.40;93.44;95634.44;4992767;28;20079;-76
2021/03/05 09:33:43;;;;;;;68.47;24.42;;;;;;;2.47;94.92;95634.28;4994675;28;20026;-77
2021/03/05 09:36:11;;;;;;;20.33;9.05;;;;;;;2.17;94.45;95653.00;4992406;28;20038;-77
2021/03/05 09:38:40;;;;;;;48.20;15.32;;;;;;;1.81;95.98;95658.44;4992121;28;20034;-77
2021/03/05 09:41:20;;;;;;;45.15;15.27;;;;;;;1.95;96.02;95658.94;4992393;28;20059;-74
2021/03/05 09:44:10;;;;;;;84.38;26.25;;;;;;;2.32;95.68;95659.28;4992326;28;20443;-76
2021/03/05 09:46:42;;;;;;;55.75;21.05;;;;;;;2.43;94.51;95665.47;4992525;28;20031;-75
2021/03/05 09:49:24;;;;;;;66.28;20.92;;;;;;;2.40;95.10;95665.94;4994538;28;20037;-76
2021/03/05 09:51:50;;;;;;;45.45;14.48;;;;;;;2.35;93.80;95650.13;4992383;28;20080;-76
2021/03/05 09:54:17;;;;;;;68.05;23.63;;;;;;;2.85;94.27;95672.91;4992404;28;20043;-75
2021/03/05 09:56:49;;;;;;;46.88;15.30;;;;;;;2.38;94.01;95657.53;4974231;28;20471;-75
2021/03/05 09:59:15;;;;;;;57.50;20.55;;;;;;;2.64;93.38;95684.16;4991680;28;21203;-76
2021/03/05 10:01:42;;;;;;;50.35;16.98;;;;;;;2.86;93.64;95690.25;4992122;28;20035;-74
2021/03/05 10:04:10;;;;;;;24.65;8.93;;;;;;;1.81;93.63;95686.50;4976848;28;20027;-76
2021/03/05 10:06:35;;;;;;;36.22;13.80;;;;;;;1.90;93.72;95698.19;4974472;28;20492;-77
2021/03/05 10:09:05;;;;;;;38.08;13.10;;;;;;;1.95;93.02;95703.53;4973977;28;20035;-76
2021/03/05 10:11:34;;;;;;;45.95;15.68;;;;;;;2.52;92.35;95711.31;4974044;28;20447;-74
2021/03/05 10:14:00;;;;;;;36.40;12.57;;;;;;;2.00;91.36;95695.75;4991846;28;20125;-74
2021/03/05 10:16:29;;;;;;;52.63;17.02;;;;;;;1.82;91.84;95690.69;4991323;28;20029;-74
2021/03/05 10:19:08;;;;;;;51.30;17.73;;;;;;;2.48;91.86;95712.03;4993174;28;20468;-76
2021/03/05 10:21:35;;;;;;;56.35;18.25;;;;;;;2.98;90.76;95725.13;4989967;28;20093;-74
2021/03/05 10:24:05;;;;;;;56.75;17.02;;;;;;;2.51;90.72;95724.69;4991656;28;20038;-76
2021/03/05 10:26:31;;;;;;;55.30;16.27;;;;;;;2.27;91.90;95721.41;4991335;28;20070;-73
2021/03/05 10:29:07;;;;;;;87.13;22.45;;;;;;;2.78;91.33;95719.59;4990802;28;20049;-73
2021/03/05 10:31:46;;;;;;;92.22;24.80;;;;;;;2.94;90.19;95739.00;4990818;28;20061;-75
2021/03/05 10:34:20;;;;;;;87.45;24.60;;;;;;;2.60;90.48;95734.53;4992938;28;20121;-73
2021/03/05 10:36:45;;;;;;;69.07;19.00;;;;;;;1.87;91.96;95737.22;4991619;28;20650;-72
2021/03/05 10:39:10;;;;;;;88.03;24.02;;;;;;;1.96;92.46;95725.31;4973439;28;20105;-79
2021/03/05 10:41:37;;;;;;;77.70;23.60;;;;;;;1.95;92.05;95721.91;4991874;28;20073;-76
2021/03/05 10:44:02;;;;;;;95.95;27.17;;;;;;;2.15;93.04;95752.97;4991645;28;20042;-78
2021/03/05 10:46:28;;;;;;;87.68;27.05;;;;;;;2.93;92.49;95751.34;4990659;28;20037;-78
2021/03/05 10:48:53;;;;;;;95.00;29.40;;;;;;;3.27;90.53;95753.91;4974485;28;20125;-72
2021/03/05 10:51:18;;;;;;;90.68;25.98;;;;;;;3.03;88.32;95751.50;4990125;28;20084;-70
2021/03/05 10:53:44;;;;;;;72.43;24.02;;;;;;;2.46;90.22;95756.91;4990578;28;20048;-73
2021/03/05 10:56:09;;;;;;;82.70;27.38;;;;;;;2.63;90.04;95758.75;4972849;28;20057;-73
2021/03/05 10:58:35;;;;;;;87.57;27.48;;;;;;;2.59;90.51;95756.59;4990176;28;20038;-72
2021/03/05 11:01:00;;;;;;;67.90;22.13;;;;;;;2.89;89.20;95759.94;4975055;28;20026;-75
2021/03/05 11:03:25;;;;;;;89.57;28.27;;;;;;;2.74;89.36;95771.00;4990288;28;20046;-76
2021/03/05 11:05:50;;;;;;;74.43;27.02;;;;;;;2.08;90.71;95768.03;4990326;28;20066;-73
2021/03/05 11:08:19;;;;;;;76.45;27.10;;;;;;;2.26;90.24;95762.59;4989836;28;20030;-74
2021/03/05 11:10:44;;;;;;;71.97;27.27;;;;;;;2.73;90.02;95758.91;4990706;28;20504;-75
2021/03/05 11:13:10;;;;;;;88.30;29.10;;;;;;;3.08;89.51;95771.78;4991954;28;20076;-74
2021/03/05 11:15:35;;;;;;;66.13;24.75;;;;;;;2.69;90.35;95778.81;4990281;28;20125;-74
2021/03/05 11:18:00;;;;;;;70.13;24.88;;;;;;;2.84;90.09;95776.41;4989275;28;20034;-75
2021/03/05 11:20:26;;;;;;;77.85;26.00;;;;;;;2.82;90.08;95773.25;4972944;28;20072;-74
2021/03/05 11:22:53;;;;;;;67.93;23.13;;;;;;;2.93;88.73;95775.00;4990805;28;20054;-75
2021/03/05 11:25:19;;;;;;;78.68;26.48;;;;;;;3.27;89.18;95790.72;4973068;28;20037;-73
2021/03/05 11:27:44;;;;;;;59.40;20.85;;;;;;;2.60;89.88;95783.63;4975105;28;20132;-74
2021/03/05 11:30:10;;;;;;;55.75;21.38;;;;;;;2.63;90.90;95779.75;4990376;28;20093;-74
2021/03/05 11:32:35;;;;;;;67.38;23.30;;;;;;;3.15;90.67;95777.66;4990582;28;20038;-73
2021/03/05 11:35:01;;;;;;;64.90;20.50;;;;;;;3.30;89.20;95790.25;4990938;28;20201;-75